M I D A S
Marine Information and Data Acquisition System
Tripno 1521 of the Zeeleeuw from 2008-07-17 06:24:38 to 2008-07-17 15:20:31
Back to CruiseResearch ActivitiesStationsMapUnderway DataData graphs

EquipmentUnitsComment
TimeDGPSUTC
LatitudeDGPSDM.mWGS84
LongitudeDGPSDM.mWGS84
TemperatureSBE03/SBE38deg celciusITS90
ConductivitySBE21S/mITS90
SalinitySBE21 Practical Salinity Units
ChlorophylAChelsea fluorimeterg/lCalibrated in Aceton
Missing or incorrect values are displayed as -999
Sea surface data collected by the RV Zeeleeuw from 2008-07-17 06:27:00 to 2008-07-17 15:22:41
Time Latitude Longitude Temperature Conductivity Salinity ChlorophylA
2008-07-17 06:28:04 51°13.637 2°55.996 21.0608 0.07627 0.389756 -1.627401
2008-07-17 06:29:04 51°13.645 2°55.954 21.0523 0.07627 0.389787 -1.627401
2008-07-17 06:30:05 51°13.661 2°55.9 21.066 0.07627 0.389819 -1.627401
2008-07-17 06:31:04 51°13.686 2°55.815 21.0865 0.076167 0.389295 -1.627401
2008-07-17 06:32:04 51°13.701 2°55.741 21.0945 0.076167 0.389338 -1.627401
2008-07-17 06:33:04 51°13.718 2°55.752 21.1023 0.076167 0.389401 -1.627401
2008-07-17 06:34:05 51°13.722 2°55.75 19.0757 2.706857 18.09028 0.496866
2008-07-17 06:35:04 51°13.735 2°55.734 18.86 3.85734 28.018655 4.466808
2008-07-17 06:36:04 51°13.823 2°55.643 18.8448 3.762278 27.342186 4.39716
2008-07-17 06:37:04 51°13.952 2°55.537 18.7769 3.750669 27.26963 4.675753
2008-07-17 06:38:03 51°14.083 2°55.435 18.732 3.952323 28.971496 5.128465
2008-07-17 06:39:01 51°14.209 2°55.322 18.6815 3.996813 29.355192 4.989169
2008-07-17 06:40:01 51°14.313 2°55.156 18.6603 4.017348 29.548913 4.780225
2008-07-17 06:41:01 51°14.392 2°54.939 18.5476 4.167967 30.838627 5.023993
2008-07-17 06:42:01 51°14.394 2°54.632 18.4619 4.327041 32.23074 5.616002
2008-07-17 06:43:01 51°14.31 2°54.327 18.3963 4.444333 33.282183 6.138363
2008-07-17 06:44:01 51°14.215 2°54.021 18.3758 4.49458 33.735249 5.999067
2008-07-17 06:45:01 51°14.116 2°53.712 18.3465 4.532685 34.077878 5.999067
2008-07-17 06:46:01 51°14.015 2°53.403 18.3374 4.536838 34.129252 6.173187
2008-07-17 06:47:01 51°13.915 2°53.092 18.3261 4.531128 34.085734 6.208011
2008-07-17 06:48:01 51°13.813 2°52.782 18.315 4.548468 34.241082 6.173187
2008-07-17 06:49:01 51°13.725 2°52.464 18.3208 4.550648 34.267383 6.138363
2008-07-17 06:50:01 51°13.648 2°52.153 18.3227 4.546495 34.229717 5.755298
2008-07-17 06:51:01 51°13.58 2°51.978 18.3142 4.543899 34.208486 5.581178
2008-07-17 06:52:01 51°13.537 2°51.855 18.3091 4.550025 34.266746 5.476706
2008-07-17 06:53:01 51°13.51 2°51.742 18.3085 4.546495 34.238285 5.372234
2008-07-17 06:54:01 51°13.487 2°51.614 18.3126 4.544938 34.227784 5.198113
2008-07-17 06:55:01 51°13.462 2°51.476 18.3088 4.550233 34.271137 5.093641
2008-07-17 06:56:01 51°13.43 2°51.38 18.3028 4.549714 34.268737 5.023993
2008-07-17 06:57:01 51°13.402 2°51.328 18.2968 4.55501 34.318046 4.710577
2008-07-17 06:58:01 51°13.378 2°51.292 18.2996 4.55366 34.310619 4.640929
2008-07-17 06:59:01 51°13.355 2°51.259 18.2968 4.557086 34.339542 4.536456
2008-07-17 07:00:01 51°13.333 2°51.227 18.2935 4.558332 34.351384 4.188216
2008-07-17 07:01:01 51°13.303 2°51.174 18.2953 4.544626 34.237683 3.909623
2008-07-17 07:02:01 51°13.221 2°50.955 18.2965 4.544003 34.232426 3.944447
2008-07-17 07:03:01 51°13.114 2°50.664 18.3066 4.552725 34.302731 4.919521
2008-07-17 07:04:01 51°13.012 2°50.358 18.3078 4.542861 34.212244 5.163289
2008-07-17 07:05:01 51°12.897 2°50.061 18.3058 4.544211 34.224289 5.163289
2008-07-17 07:06:01 51°12.78 2°49.767 18.3124 4.526041 34.070406 5.232937
2008-07-17 07:07:01 51°12.664 2°49.474 18.3277 4.547845 34.247693 5.407058
2008-07-17 07:08:01 51°12.547 2°49.179 18.3309 4.549298 34.250064 5.546354
2008-07-17 07:09:01 51°12.432 2°48.881 18.3323 4.540473 34.17236 5.616002
2008-07-17 07:10:01 51°12.346 2°48.564 18.3289 4.570689 34.426545 5.720474
2008-07-17 07:11:01 51°12.27 2°48.238 18.3146 4.574634 34.464489 5.616002
2008-07-17 07:12:01 51°12.193 2°47.913 18.2927 4.575881 34.488951 5.476706
2008-07-17 07:13:01 51°12.123 2°47.582 18.2622 4.575777 34.510008 5.163289
2008-07-17 07:14:01 51°12.056 2°47.252 18.2323 4.577024 34.545842 4.640929
2008-07-17 07:15:01 51°11.98 2°46.926 18.2115 4.578063 34.577305 4.014096
2008-07-17 07:16:01 51°11.9 2°46.603 18.1965 4.577648 34.590486 3.631031
2008-07-17 07:17:01 51°11.828 2°46.277 18.1809 4.577232 34.596995 3.317614
2008-07-17 07:18:01 51°11.758 2°45.949 18.1635 4.57609 34.601363 3.143494
2008-07-17 07:19:01 51°11.69 2°45.619 18.134 4.574845 34.608872 3.039022
2008-07-17 07:20:01 51°11.621 2°45.29 18.1115 4.573391 34.618651 3.039022
2008-07-17 07:21:01 51°11.54 2°44.966 18.1022 4.572353 34.625263 3.039022
2008-07-17 07:22:01 51°11.459 2°44.641 18.0951 4.571626 34.627144 3.10867
2008-07-17 07:23:01 51°11.378 2°44.317 18.0782 4.571107 34.628777 3.178318
2008-07-17 07:24:01 51°11.296 2°43.995 18.0822 4.569965 34.632505 3.352439
2008-07-17 07:25:01 51°11.208 2°43.677 18.0879 4.570381 34.629318 3.178318
2008-07-17 07:26:01 51°11.123 2°43.358 18.0873 4.570692 34.629277 3.10867
2008-07-17 07:27:01 51°11.072 2°43.063 18.0862 4.570796 34.630159 2.969374
2008-07-17 07:28:01 51°11.057 2°42.868 18.0755 4.570692 34.631963 2.93455
2008-07-17 07:29:01 51°11.06 2°42.716 18.0641 4.569965 34.63452 2.93455
2008-07-17 07:30:01 51°11.069 2°42.57 18.0408 4.568823 34.639597 3.039022
2008-07-17 07:31:01 51°11.075 2°42.418 17.9922 4.566332 34.644641 3.143494
2008-07-17 07:32:01 51°11.078 2°42.271 17.9541 4.561556 34.638343 3.039022
2008-07-17 07:33:01 51°11.07 2°42.177 17.9323 4.559064 34.646779 2.795254
2008-07-17 07:34:01 51°11.057 2°42.143 17.921 4.557092 34.648861 2.481837
2008-07-17 07:35:01 51°11.043 2°42.12 17.9167 4.556365 34.648067 2.342541
2008-07-17 07:36:01 51°11.028 2°42.102 17.9146 4.55595 34.648577 2.238069
2008-07-17 07:37:01 51°11.013 2°42.085 17.9078 4.555638 34.649297 2.098773
2008-07-17 07:38:01 51°10.976 2°42.053 17.9106 4.555223 34.648458 2.029124
2008-07-17 07:39:01 51°10.896 2°41.948 17.9155 4.555223 34.648458 2.203245
2008-07-17 07:40:01 51°10.788 2°41.769 17.9627 4.556365 34.644693 2.795254
2008-07-17 07:41:01 51°10.676 2°41.574 18.006 4.560829 34.641587 3.073846
2008-07-17 07:42:01 51°10.565 2°41.375 18.0275 4.564567 34.642416 3.039022
2008-07-17 07:43:01 51°10.452 2°41.178 18.0374 4.566332 34.641277 3.073846
2008-07-17 07:44:01 51°10.345 2°40.972 18.045 4.566955 34.641865 3.28279
2008-07-17 07:45:01 51°10.248 2°40.756 18.0582 4.567785 34.63884 3.352439
2008-07-17 07:46:01 51°10.168 2°40.523 18.0645 4.568408 34.634053 3.247966
2008-07-17 07:47:01 51°10.102 2°40.323 18.0696 4.568304 34.628468 3.178318
2008-07-17 07:48:01 51°10.074 2°40.165 18.0834 4.568304 34.623768 3.039022
2008-07-17 07:49:01 51°10.146 2°40.124 18.0732 4.569238 34.620962 3.28279
2008-07-17 07:50:01 51°10.159 2°40.303 18.054 4.568097 34.626705 3.526559
2008-07-17 07:51:01 51°10.16 2°40.564 18.0635 4.56737 34.627919 3.422087
2008-07-17 07:52:01 51°10.162 2°40.834 18.0768 4.568096 34.625361 3.28279
2008-07-17 07:53:01 51°10.154 2°41.105 18.0937 4.569031 34.621884 3.073846
2008-07-17 07:54:01 51°10.143 2°41.378 18.115 4.57038 34.617239 2.899726
2008-07-17 07:55:01 51°10.13 2°41.652 18.1402 4.572561 34.617637 2.864902
2008-07-17 07:56:01 51°10.123 2°41.925 18.1647 4.575052 34.618 2.899726
2008-07-17 07:57:01 51°10.109 2°42.174 18.182 4.577337 34.617945 3.10867
2008-07-17 07:58:01 51°10.089 2°42.411 18.1992 4.578375 34.613359 3.526559
2008-07-17 07:59:01 51°10.092 2°42.627 18.2177 4.57879 34.602832 4.118568
2008-07-17 08:00:01 51°10.11 2°42.72 18.2293 4.576817 34.570764 4.431984
2008-07-17 08:01:01 51°10.105 2°42.723 18.2289 4.577024 34.567182 4.501632
2008-07-17 08:02:01 51°10.097 2°42.724 18.2317 4.57744 34.569363 4.466808
2008-07-17 08:03:01 51°10.087 2°42.725 18.2328 4.580243 34.591087 4.466808
2008-07-17 08:04:01 51°10.077 2°42.728 18.2333 4.580243 34.590419 4.39716
2008-07-17 08:05:01 51°10.065 2°42.73 18.2392 4.580555 34.589717 4.292688
2008-07-17 08:06:01 51°10.053 2°42.73 18.2412 4.580762 34.588137 4.501632
2008-07-17 08:07:01 51°10.033 2°42.743 18.2447 4.580866 34.58768 4.362336
2008-07-17 08:08:01 51°10.035 2°42.816 18.2539 4.58097 34.585889 4.362336
2008-07-17 08:09:01 51°10.137 2°42.851 18.2598 4.581489 34.581607 4.57128
2008-07-17 08:10:01 51°10.275 2°42.752 18.2406 4.581593 34.583153 4.780225
2008-07-17 08:11:01 51°10.338 2°42.466 18.2105 4.582216 34.606449 4.22304
2008-07-17 08:12:01 51°10.359 2°42.143 18.1721 4.579517 34.608988 3.247966
2008-07-17 08:13:01 51°10.368 2°41.814 18.1391 4.575364 34.60524 2.795254
2008-07-17 08:14:01 51°10.371 2°41.483 18.1169 4.573287 34.61308 2.76043
2008-07-17 08:15:01 51°10.368 2°41.149 18.105 4.572872 34.622962 2.899726
2008-07-17 08:16:01 51°10.365 2°40.815 18.0843 4.572873 34.635707 3.073846
2008-07-17 08:17:01 51°10.364 2°40.48 18.058 4.571315 34.641953 3.247966
2008-07-17 08:18:01 51°10.361 2°40.145 18.0239 4.568927 34.644512 3.352439
2008-07-17 08:19:01 51°10.338 2°39.812 17.9903 4.565605 34.644516 3.561383
2008-07-17 08:20:01 51°10.317 2°39.478 17.9644 4.562698 34.643347 3.317614
2008-07-17 08:21:01 51°10.294 2°39.143 17.9361 4.559791 34.644204 2.830078
2008-07-17 08:22:01 51°10.274 2°38.808 17.9168 4.557611 34.648561 2.133597
2008-07-17 08:23:01 51°10.26 2°38.472 17.9253 4.557403 34.657589 1.64606
2008-07-17 08:24:01 51°10.241 2°38.136 17.9376 4.559272 34.663389 1.437116
2008-07-17 08:25:01 51°10.226 2°37.798 17.9255 4.558649 34.652684 1.402292
2008-07-17 08:26:01 51°10.216 2°37.459 17.9083 4.55678 34.650256 1.611236
2008-07-17 08:27:01 51°10.23 2°37.129 17.9026 4.556365 34.659543 1.715708
2008-07-17 08:28:01 51°10.311 2°36.833 17.9117 4.55595 34.657353 1.680884
2008-07-17 08:29:01 51°10.465 2°36.671 17.9275 4.5573 34.654679 1.541588
2008-07-17 08:30:01 51°10.65 2°36.691 17.9281 4.558442 34.660361 1.402292
2008-07-17 08:31:01 51°10.838 2°36.714 17.9387 4.559688 34.666927 1.228171
2008-07-17 08:32:01 51°11.026 2°36.748 17.9305 4.561661 34.681034 1.123699
2008-07-17 08:33:01 51°11.215 2°36.776 17.9431 4.561349 34.681081 1.054051
2008-07-17 08:34:01 51°11.402 2°36.815 17.9736 4.563426 34.683918 1.054051
2008-07-17 08:35:01 51°11.591 2°36.848 17.9949 4.566956 34.688336 1.088875
2008-07-17 08:36:01 51°11.779 2°36.881 18.007 4.568824 34.688732 1.088875
2008-07-17 08:37:01 51°11.967 2°36.925 18.0077 4.569759 34.690616 1.123699
2008-07-17 08:38:01 51°12.155 2°36.966 17.9995 4.569759 34.690616 1.123699
2008-07-17 08:39:01 51°12.343 2°37.006 17.9851 4.568824 34.690755 1.054051
2008-07-17 08:40:01 51°12.532 2°37.044 17.9727 4.567579 34.69229 0.949579
2008-07-17 08:41:01 51°12.721 2°37.082 17.9615 4.56654 34.692896 0.775459
2008-07-17 08:42:01 51°12.91 2°37.119 17.9541 4.566021 34.696574 0.775459
2008-07-17 08:43:01 51°13.099 2°37.157 17.947 4.565502 34.698904 0.810283
2008-07-17 08:44:01 51°13.29 2°37.157 17.9419 4.565191 34.701653 0.810283
2008-07-17 08:45:01 51°13.48 2°37.142 17.9302 4.564879 34.703728 0.810283
2008-07-17 08:46:01 51°13.674 2°37.11 17.899 4.563945 34.708605 0.810283
2008-07-17 08:47:01 51°13.869 2°37.071 17.7567 4.561557 34.726806 0.845107
2008-07-17 08:48:01 51°14.062 2°37.035 17.6404 4.553565 34.794361 0.740634
2008-07-17 08:49:01 51°14.253 2°37 17.6137 4.547647 34.809854 0.775459
2008-07-17 08:50:01 51°14.443 2°36.983 17.5864 4.545363 34.81419 0.810283
2008-07-17 08:51:01 51°14.635 2°36.971 17.5741 4.542975 34.81696 0.810283
2008-07-17 08:52:01 51°14.827 2°36.961 17.5631 4.541833 34.816739 0.810283
2008-07-17 08:53:01 51°15.022 2°36.945 17.55 4.540899 34.817618 0.775459
2008-07-17 08:54:01 51°15.216 2°36.919 17.5462 4.539861 34.81692 0.70581
2008-07-17 08:55:01 51°15.409 2°36.9 17.5389 4.539238 34.817735 0.70581
2008-07-17 08:56:01 51°15.602 2°36.896 17.5407 4.538719 34.816701 0.670986
2008-07-17 08:57:01 51°15.797 2°36.888 17.5524 4.53903 34.817321 0.70581
2008-07-17 08:58:01 51°15.991 2°36.867 17.5558 4.539757 34.815342 0.740634
2008-07-17 08:59:01 51°16.164 2°36.836 17.5613 4.540069 34.815963 0.670986
2008-07-17 09:00:01 51°16.259 2°36.822 17.5634 4.540484 34.81542 0.601338
2008-07-17 09:01:01 51°16.32 2°36.829 17.5605 4.540691 34.815834 0.636162
2008-07-17 09:02:01 51°16.38 2°36.837 17.5568 4.54038 34.815898 0.601338
2008-07-17 09:03:01 51°16.46 2°36.844 17.5448 4.540172 34.818911 0.566514
2008-07-17 09:04:01 51°16.526 2°36.816 17.533 4.539238 34.822535 0.566514
2008-07-17 09:05:01 51°16.568 2°36.795 17.5275 4.538615 34.824038 0.601338
2008-07-17 09:06:01 51°16.578 2°36.77 17.5243 4.5382 34.825269 0.670986
2008-07-17 09:07:01 51°16.582 2°36.749 17.5183 4.537992 34.826914 0.740634
2008-07-17 09:08:01 51°16.581 2°36.733 17.5174 4.537785 34.827873 0.775459
2008-07-17 09:09:01 51°16.578 2°36.72 17.5144 4.537681 34.828353 0.810283
2008-07-17 09:10:01 51°16.573 2°36.711 17.5149 4.537473 34.828626 0.845107
2008-07-17 09:11:01 51°16.566 2°36.705 17.5199 4.537473 34.829312 0.775459
2008-07-17 09:12:01 51°16.561 2°36.699 17.5312 4.5382 34.829386 0.740634
2008-07-17 09:13:01 51°16.602 2°36.614 17.5222 4.539031 34.831039 0.670986
2008-07-17 09:14:01 51°16.689 2°36.433 17.4797 4.5382 34.83625 0.462042
2008-07-17 09:15:01 51°16.817 2°36.251 17.4068 4.534567 34.848268 0.35757
2008-07-17 09:16:01 51°16.963 2°36.039 17.3522 4.528961 34.86124 0.392394
2008-07-17 09:17:01 51°17.116 2°35.837 17.3286 4.525016 34.865145 0.427218
2008-07-17 09:18:01 51°17.271 2°35.642 17.3258 4.523251 34.863717 0.427218
2008-07-17 09:19:01 51°17.423 2°35.443 17.3288 4.523148 34.864892 0.496866
2008-07-17 09:20:01 51°17.576 2°35.246 17.334 4.523459 34.864128 0.601338
2008-07-17 09:21:01 51°17.735 2°35.06 17.3357 4.523667 34.861777 0.670986
2008-07-17 09:22:01 51°17.866 2°34.817 17.3392 4.523563 34.860881 0.670986
2008-07-17 09:23:01 51°17.988 2°34.558 17.3429 4.523667 34.858325 0.601338
2008-07-17 09:24:01 51°18.108 2°34.297 17.339 4.52377 34.855769 0.53169
2008-07-17 09:25:01 51°18.222 2°34.026 17.3404 4.523667 34.860396 0.496866
2008-07-17 09:26:01 51°18.334 2°33.759 17.3373 4.522213 34.845776 0.670986
2008-07-17 09:27:01 51°18.441 2°33.486 17.3449 4.520552 34.834194 0.670986
2008-07-17 09:28:01 51°18.556 2°33.222 17.341 4.52159 34.839707 0.462042
2008-07-17 09:29:01 51°18.675 2°32.96 17.3455 4.522836 34.849083 0.322746
2008-07-17 09:30:01 51°18.787 2°32.693 17.3385 4.520863 34.831364 0.253098
2008-07-17 09:31:01 51°18.897 2°32.42 17.3168 4.523978 34.86723 0.287922
2008-07-17 09:32:01 51°19.019 2°32.162 17.2963 4.523355 34.878435 0.35757
2008-07-17 09:33:01 51°19.138 2°31.903 17.2799 4.522525 34.887857 0.392394
2008-07-17 09:34:01 51°19.257 2°31.643 17.2511 4.52128 34.895084 0.496866
2008-07-17 09:35:01 51°19.377 2°31.384 17.2158 4.518788 34.899858 0.462042
2008-07-17 09:36:01 51°19.501 2°31.131 17.1855 4.516193 34.905828 0.392394
2008-07-17 09:37:01 51°19.626 2°30.884 17.168 4.514532 34.916437 0.392394
2008-07-17 09:38:01 51°19.756 2°30.64 17.1714 4.513805 34.917783 0.427218
2008-07-17 09:39:01 51°19.881 2°30.405 17.1874 4.513909 34.913818 0.496866
2008-07-17 09:40:01 51°19.942 2°30.259 17.1962 4.515363 34.912519 0.566514
2008-07-17 09:41:01 51°19.955 2°30.177 17.1995 4.515985 34.913054 0.53169
2008-07-17 09:42:01 51°19.967 2°30.129 17.2027 4.516505 34.914079 0.496866
2008-07-17 09:43:01 51°19.98 2°30.087 17.2078 4.516712 34.914489 0.601338
2008-07-17 09:44:01 51°19.99 2°30.048 17.2121 4.517127 34.914614 0.601338
2008-07-17 09:45:01 51°19.993 2°30.039 17.2112 4.517439 34.915229 0.53169
2008-07-17 09:46:01 51°19.997 2°30.042 17.2088 4.517439 34.915923 0.636162
2008-07-17 09:47:01 51°20 2°30.052 17.2118 4.517439 34.915229 0.70581
2008-07-17 09:48:01 51°20.006 2°30.067 17.2076 4.517543 34.916128 0.740634
2008-07-17 09:49:01 51°20.011 2°30.086 17.2084 4.517335 34.916412 0.810283
2008-07-17 09:50:01 51°20.016 2°30.107 17.2134 4.517127 34.915308 0.810283
2008-07-17 09:51:01 51°20.021 2°30.129 17.222 4.51775 34.915843 0.636162
2008-07-17 09:52:01 51°20.033 2°30.148 17.2273 4.518685 34.915606 0.496866
2008-07-17 09:53:01 51°20.104 2°30.194 17.2318 4.519619 34.914675 0.392394
2008-07-17 09:54:01 51°20.187 2°30.39 17.2214 4.5191 34.917813 0.322746
2008-07-17 09:55:01 51°20.288 2°30.607 17.2196 4.518685 34.916994 0.253098
2008-07-17 09:56:01 51°20.402 2°30.85 17.2169 4.518685 34.918382 0.18345
2008-07-17 09:57:01 51°20.527 2°31.109 17.2061 4.518477 34.917972 0.18345
2008-07-17 09:58:01 51°20.656 2°31.361 17.1769 4.516608 34.917756 0.287922
2008-07-17 09:59:01 51°20.763 2°31.635 17.1548 4.514844 34.926781 0.218274
2008-07-17 10:00:01 51°20.854 2°31.925 17.1447 4.513806 34.933776 0.113802
2008-07-17 10:01:01 51°20.944 2°32.216 17.1499 4.513494 34.933163 0.078977
2008-07-17 10:02:01 51°21.035 2°32.502 17.1513 4.51391 34.932589 0.078977
2008-07-17 10:03:01 51°21.128 2°32.785 17.1445 4.513702 34.934267 0.078977
2008-07-17 10:04:01 51°21.218 2°33.072 17.145 4.513494 34.936642 0.113802
2008-07-17 10:05:01 51°21.31 2°33.36 17.1503 4.513702 34.939139 0.113802
2008-07-17 10:06:01 51°21.408 2°33.647 17.1513 4.514221 34.940857 0.113802
2008-07-17 10:07:01 51°21.503 2°33.939 17.1501 4.51474 34.940487 0.044153
2008-07-17 10:08:01 51°21.599 2°34.233 17.1482 4.514117 34.940652 0.078977
2008-07-17 10:09:01 51°21.696 2°34.527 17.1524 4.514636 34.940979 0.078977
2008-07-17 10:10:01 51°21.791 2°34.822 17.1591 4.515052 34.942492 0.078977
2008-07-17 10:11:01 51°21.886 2°35.117 17.1659 4.51609 34.945232 0.078977
2008-07-17 10:12:01 51°21.978 2°35.415 17.1697 4.516194 34.944045 0.078977
2008-07-17 10:13:01 51°22.072 2°35.711 17.169 4.516401 34.941671 0.078977
2008-07-17 10:14:01 51°22.169 2°36.006 17.1736 4.516401 34.940976 0.113802
2008-07-17 10:15:01 51°22.263 2°36.305 17.1837 4.51692 34.938521 0.148626
2008-07-17 10:16:01 51°22.253 2°36.635 17.1723 4.517128 34.93754 0.218274
2008-07-17 10:17:01 51°22.244 2°36.972 17.1839 4.516297 34.937294 0.18345
2008-07-17 10:18:01 51°22.242 2°37.308 17.1776 4.517128 34.936149 0.18345
2008-07-17 10:19:01 51°22.237 2°37.645 17.1682 4.516193 34.932918 0.218274
2008-07-17 10:20:01 51°22.293 2°37.942 17.1747 4.515363 34.930586 0.148626
2008-07-17 10:21:01 51°22.424 2°38.196 17.1891 4.515467 34.925924 0.044153
2008-07-17 10:22:01 51°22.524 2°38.487 17.1833 4.516089 34.923678 0.078977
2008-07-17 10:23:01 51°22.626 2°38.781 17.1898 4.51557 34.92057 0.078977
2008-07-17 10:24:01 51°22.723 2°39.079 17.1853 4.516193 34.918325 0.009329
2008-07-17 10:25:01 51°22.821 2°39.376 17.2025 4.515363 34.915297 0.009329
2008-07-17 10:26:01 51°22.918 2°39.673 17.2125 4.517024 34.913021 -0.025495
2008-07-17 10:27:01 51°23.019 2°39.969 17.2069 4.517543 34.911963 0.009329
2008-07-17 10:28:01 51°23.116 2°40.267 17.2144 4.517127 34.910449 0.009329
2008-07-17 10:29:01 51°23.215 2°40.565 17.2191 4.517439 34.909676 -0.025495
2008-07-17 10:30:01 51°23.316 2°40.86 17.2204 4.51775 34.90821 0.009329
2008-07-17 10:31:01 51°23.414 2°41.158 17.2217 4.517439 34.906901 0.044153
2008-07-17 10:32:01 51°23.514 2°41.456 17.2226 4.517646 34.904536 0.078977
2008-07-17 10:33:01 51°23.614 2°41.754 17.2267 4.517335 34.903227 0.113802
2008-07-17 10:34:01 51°23.714 2°42.053 17.2275 4.517542 34.90225 0.113802
2008-07-17 10:35:01 51°23.814 2°42.354 17.2328 4.51775 34.898499 0.113802
2008-07-17 10:36:01 51°23.918 2°42.654 17.2373 4.517854 34.898011 0.113802
2008-07-17 10:37:01 51°24.025 2°42.95 17.2354 4.518061 34.897035 0.113802
2008-07-17 10:38:01 51°24.128 2°43.251 17.235 4.518165 34.898627 0.148626
2008-07-17 10:39:01 51°24.234 2°43.548 17.2346 4.518165 34.897934 0.148626
2008-07-17 10:40:01 51°24.336 2°43.85 17.2415 4.518373 34.899037 0.148626
2008-07-17 10:41:01 51°24.44 2°44.148 17.2367 4.518477 34.900629 0.113802
2008-07-17 10:42:01 51°24.541 2°44.452 17.2411 4.518788 34.899858 0.078977
2008-07-17 10:43:01 51°24.636 2°44.76 17.2484 4.5191 34.900474 0.078977
2008-07-17 10:44:01 51°24.734 2°45.064 17.2544 4.519826 34.899831 0.044153
2008-07-17 10:45:01 51°24.834 2°45.365 17.263 4.520138 34.898368 -0.025495
2008-07-17 10:46:01 51°24.933 2°45.669 17.2773 4.521176 34.897649 -0.060319
2008-07-17 10:47:01 51°25.031 2°45.975 17.2843 4.522421 34.895265 -0.095143
2008-07-17 10:48:01 51°25.126 2°46.284 17.2871 4.522837 34.89401 -0.095143
2008-07-17 10:49:01 51°25.224 2°46.588 17.2957 4.523044 34.893728 -0.095143
2008-07-17 10:50:01 51°25.323 2°46.893 17.3038 4.523252 34.890679 -0.060319
2008-07-17 10:51:02 51°25.425 2°47.201 17.3069 4.523667 34.886658 -0.095143
2008-07-17 10:52:02 51°25.524 2°47.51 17.3053 4.523356 34.881892 -0.060319
2008-07-17 10:53:02 51°25.617 2°47.817 17.3082 4.522733 34.87651 -0.060319
2008-07-17 10:54:02 51°25.719 2°48.102 17.3053 4.52211 34.871819 -0.095143
2008-07-17 10:55:02 51°25.803 2°48.253 17.3132 4.521487 34.866436 -0.095143
2008-07-17 10:56:02 51°25.868 2°48.323 17.3035 4.521383 34.864157 -0.129967
2008-07-17 10:57:02 51°25.921 2°48.375 17.3062 4.521071 34.863539 -0.129967
2008-07-17 10:58:02 51°25.968 2°48.432 17.3076 4.520968 34.861951 -0.129967
2008-07-17 10:59:02 51°25.996 2°48.478 17.3099 4.521071 34.860084 -0.095143
2008-07-17 11:00:02 51°26.009 2°48.514 17.3116 4.521279 34.859114 -0.060319
2008-07-17 11:01:02 51°26.02 2°48.548 17.3112 4.521279 34.859805 -0.025495
2008-07-17 11:02:02 51°26.031 2°48.582 17.3173 4.521383 34.859319 0.009329
2008-07-17 11:03:02 51°26.04 2°48.615 17.3285 4.522006 34.857792 0.044153
2008-07-17 11:04:02 51°26.051 2°48.651 17.3271 4.522836 34.858058 0.009329
2008-07-17 11:05:02 51°26.061 2°48.688 17.3228 4.522628 34.859028 0.009329
2008-07-17 11:06:02 51°26.092 2°48.719 17.3287 4.522213 34.858894 0.009329
2008-07-17 11:07:02 51°26.151 2°48.877 17.3109 4.522628 34.859028 0.113802
2008-07-17 11:08:02 51°26.187 2°49.171 17.3181 4.520967 34.856423 0.078977
2008-07-17 11:09:02 51°26.232 2°49.511 17.3146 4.521071 34.855247 0.113802
2008-07-17 11:10:02 51°26.271 2°49.858 17.3102 4.520864 34.855526 0.113802
2008-07-17 11:11:02 51°26.319 2°50.201 17.3131 4.52076 34.856011 0.148626
2008-07-17 11:12:02 51°26.37 2°50.545 17.3173 4.520967 34.85435 0.218274
2008-07-17 11:13:02 51°26.417 2°50.892 17.3196 4.521279 34.854968 0.253098
2008-07-17 11:14:02 51°26.466 2°51.239 17.3296 4.521798 34.852545 0.322746
2008-07-17 11:15:02 51°26.517 2°51.586 17.3438 4.522317 34.850123 0.35757
2008-07-17 11:16:02 51°26.566 2°51.935 17.3488 4.523355 34.848043 0.392394
2008-07-17 11:17:02 51°26.616 2°52.282 17.3506 4.523563 34.845696 0.35757
2008-07-17 11:18:02 51°26.667 2°52.63 17.3562 4.523563 34.844316 0.427218
2008-07-17 11:19:02 51°26.71 2°52.978 17.3617 4.523978 34.841003 0.392394
2008-07-17 11:20:02 51°26.758 2°53.324 17.3814 4.524185 34.837968 0.392394
2008-07-17 11:21:02 51°26.805 2°53.671 17.4034 4.525846 34.831622 0.392394
2008-07-17 11:22:02 51°26.862 2°54.015 17.4315 4.52678 34.825906 0.35757
2008-07-17 11:23:02 51°26.912 2°54.357 17.5465 4.526572 34.773945 0.845107
2008-07-17 11:24:02 51°26.963 2°54.703 17.6196 4.526467 34.682055 1.262995
2008-07-17 11:25:02 51°27.011 2°55.046 17.6261 4.527608 34.651648 1.123699
2008-07-17 11:26:02 51°27.059 2°55.389 17.6069 4.527712 34.651857 0.949579
2008-07-17 11:27:02 51°27.111 2°55.728 17.6471 4.526154 34.646671 0.949579
2008-07-17 11:28:02 51°27.161 2°56.07 17.6784 4.524077 34.590809 1.437116
2008-07-17 11:29:02 51°27.213 2°56.411 17.6517 4.521481 34.557729 1.297819
2008-07-17 11:30:02 51°27.264 2°56.755 17.6545 4.51899 34.55334 1.054051
2008-07-17 11:31:02 51°27.314 2°57.103 17.6593 4.517017 34.535767 1.054051
2008-07-17 11:32:02 51°27.363 2°57.449 17.6671 4.515148 34.511635 1.054051
2008-07-17 11:33:02 51°27.415 2°57.792 17.7122 4.513902 34.490819 1.088875
2008-07-17 11:34:02 51°27.474 2°58.135 17.7541 4.51006 34.412058 1.402292
2008-07-17 11:35:02 51°27.537 2°58.476 17.7461 4.506944 34.361897 1.64606
2008-07-17 11:36:02 51°27.595 2°58.819 17.736 4.506114 34.365562 1.611236
2008-07-17 11:37:02 51°27.658 2°59.159 17.7531 4.503519 34.346755 1.47194
2008-07-17 11:38:02 51°27.725 2°59.498 17.7571 4.501753 34.321604 1.367467
2008-07-17 11:39:02 51°27.792 2°59.838 17.8252 4.499054 34.283802 1.228171
2008-07-17 11:40:02 51°27.847 3°0.185 17.9784 4.489605 34.127138 1.437116
2008-07-17 11:41:02 51°27.877 3°0.534 18.0796 4.470811 33.843905 2.168421
2008-07-17 11:42:02 51°27.904 3°0.883 18.1198 4.460533 33.692098 2.586309
2008-07-17 11:43:02 51°27.927 3°1.236 18.1407 4.45939 33.656372 2.412189
2008-07-17 11:44:02 51°27.96 3°1.592 18.1557 4.459182 33.638347 2.238069
2008-07-17 11:45:02 51°27.999 3°1.947 18.1605 4.460324 33.63823 1.924652
2008-07-17 11:46:02 51°28.041 3°2.298 18.1656 4.463231 33.656908 1.64606
2008-07-17 11:47:02 51°28.093 3°2.646 18.1808 4.468318 33.691376 1.47194
2008-07-17 11:48:02 51°28.151 3°2.98 18.1859 4.468836 33.687294 1.332643
2008-07-17 11:49:02 51°28.199 3°3.204 18.1837 4.467694 33.673107 1.193347
2008-07-17 11:50:02 51°28.235 3°3.354 18.1837 4.466552 33.666075 1.054051
2008-07-17 11:51:02 51°28.265 3°3.465 18.1834 4.466449 33.664549 0.984403
2008-07-17 11:52:02 51°28.282 3°3.519 18.1864 4.46676 33.666526 0.949579
2008-07-17 11:53:02 51°28.291 3°3.563 18.1839 4.466864 33.667402 0.984403
2008-07-17 11:54:02 51°28.301 3°3.61 18.175 4.467279 33.674807 0.984403
2008-07-17 11:55:02 51°28.312 3°3.658 18.1804 4.467279 33.676108 0.949579
2008-07-17 11:56:02 51°28.325 3°3.706 18.1864 4.467694 33.676359 0.914755
2008-07-17 11:57:02 51°28.338 3°3.757 18.1902 4.468421 33.678586 0.845107
2008-07-17 11:58:02 51°28.351 3°3.806 18.1929 4.468629 33.679037 0.879931
2008-07-17 11:59:02 51°28.393 3°3.884 18.1877 4.468836 33.680788 0.810283
2008-07-17 12:00:02 51°28.382 3°4.028 18.1684 4.469978 33.693023 1.088875
2008-07-17 12:01:02 51°28.282 3°4.237 18.1632 4.469563 33.701237 1.158523
2008-07-17 12:02:02 51°28.131 3°4.451 18.1371 4.471017 33.720019 1.262995
2008-07-17 12:03:02 51°27.991 3°4.692 18.0783 4.475689 33.794078 1.088875
2008-07-17 12:04:02 51°27.857 3°4.945 18.0548 4.480154 33.872456 0.879931
2008-07-17 12:05:02 51°27.719 3°5.192 18.0453 4.478493 33.866275 0.914755
2008-07-17 12:06:02 51°27.581 3°5.439 18.0525 4.477974 33.874358 0.949579
2008-07-17 12:07:02 51°27.444 3°5.688 18.0752 4.474859 33.831585 1.019227
2008-07-17 12:08:02 51°27.312 3°5.947 18.1032 4.473717 33.808816 1.054051
2008-07-17 12:09:02 51°27.186 3°6.215 18.133 4.472886 33.77758 1.088875
2008-07-17 12:10:02 51°27.058 3°6.478 18.1773 4.472055 33.745741 1.123699
2008-07-17 12:11:02 51°26.932 3°6.743 18.1661 4.463853 33.644607 1.193347
2008-07-17 12:12:02 51°26.811 3°7.015 18.1845 4.470082 33.711481 1.193347
2008-07-17 12:13:02 51°26.706 3°7.303 18.1321 4.464892 33.661817 1.158523
2008-07-17 12:14:02 51°26.627 3°7.613 18.12 4.452538 33.59461 1.054051
2008-07-17 12:15:02 51°26.565 3°7.866 18.1344 4.44714 33.54774 1.088875
2008-07-17 12:16:02 51°26.511 3°8.003 18.1377 4.445894 33.527497 1.088875
2008-07-17 12:17:02 51°26.476 3°8.117 18.1464 4.444545 33.514814 1.054051
2008-07-17 12:18:02 51°26.456 3°8.213 18.1635 4.442572 33.489107 1.054051
2008-07-17 12:19:02 51°26.444 3°8.286 18.1711 4.441949 33.472855 1.054051
2008-07-17 12:20:02 51°26.442 3°8.342 18.1708 4.441949 33.467681 1.088875
2008-07-17 12:21:02 51°26.443 3°8.391 18.1646 4.441119 33.460681 1.019227
2008-07-17 12:22:02 51°26.447 3°8.435 18.1614 4.439665 33.4536 0.984403
2008-07-17 12:23:02 51°26.451 3°8.476 18.169 4.439146 33.449871 1.019227
2008-07-17 12:24:02 51°26.458 3°8.514 18.1608 4.439043 33.44835 0.984403
2008-07-17 12:25:02 51°26.438 3°8.57 18.163 4.438627 33.445495 0.949579
2008-07-17 12:26:02 51°26.332 3°8.747 18.1656 4.438212 33.443287 0.984403
2008-07-17 12:27:02 51°26.225 3°9.026 18.1679 4.438316 33.438347 1.297819
2008-07-17 12:28:02 51°26.12 3°9.314 18.1818 4.437901 33.430326 1.367467
2008-07-17 12:29:02 51°26.011 3°9.597 18.1809 4.436551 33.41379 1.402292
2008-07-17 12:30:02 51°25.899 3°9.879 18.1848 4.43406 33.392154 1.437116
2008-07-17 12:31:02 51°25.79 3°10.162 18.1891 4.43271 33.375628 1.47194
2008-07-17 12:32:02 51°25.682 3°10.442 18.183 4.429803 33.351147 1.576412
2008-07-17 12:33:02 51°25.57 3°10.719 18.1822 4.425859 33.319856 1.715708
2008-07-17 12:34:02 51°25.453 3°10.994 18.1939 4.422848 33.29322 1.785356
2008-07-17 12:35:02 51°25.334 3°11.269 18.1981 4.421499 33.276718 1.855004
2008-07-17 12:36:02 51°25.222 3°11.547 18.2015 4.420668 33.265874 1.855004
2008-07-17 12:37:02 51°25.109 3°11.828 18.208 4.41963 33.253928 1.855004
2008-07-17 12:38:02 51°24.994 3°12.111 18.2067 4.419422 33.248331 1.889828
2008-07-17 12:39:02 51°24.875 3°12.393 18.207 4.419422 33.247048 1.9943
2008-07-17 12:40:02 51°24.753 3°12.677 18.1975 4.419215 33.245942 2.098773
2008-07-17 12:41:02 51°24.63 3°12.954 18.175 4.420253 33.263663 2.168421
2008-07-17 12:42:02 51°24.474 3°13.183 18.1709 4.423575 33.31156 1.889828
2008-07-17 12:43:02 51°24.284 3°13.307 18.1627 4.424509 33.31943 1.924652
2008-07-17 12:44:02 51°24.091 3°13.386 18.2209 4.426482 33.340553 1.9943
2008-07-17 12:45:02 51°23.9 3°13.394 18.2774 4.406862 33.113914 2.621133
2008-07-17 12:46:02 51°23.709 3°13.416 18.3092 4.373542 32.801231 2.795254
2008-07-17 12:47:02 51°23.517 3°13.44 18.2884 4.341471 32.516862 2.655957
2008-07-17 12:48:02 51°23.329 3°13.439 18.2826 4.322063 32.369426 2.690782
2008-07-17 12:49:02 51°23.151 3°13.386 18.2874 4.303486 32.215281 2.551485
2008-07-17 12:50:02 51°22.983 3°13.31 18.2943 4.291656 32.115761 2.551485
2008-07-17 12:51:02 51°22.856 3°13.264 18.3164 4.28491 32.045212 2.795254
2008-07-17 12:52:02 51°22.749 3°13.233 18.3157 4.281174 32.004782 2.76043
2008-07-17 12:53:02 51°22.699 3°13.218 18.3115 4.256995 31.801194 3.387263
2008-07-17 12:54:02 51°22.679 3°13.219 18.2992 4.234997 31.625099 3.770327
2008-07-17 12:55:02 51°22.665 3°13.228 18.3059 4.228253 31.570105 3.839975
2008-07-17 12:56:02 51°22.652 3°13.24 18.2891 4.221716 31.521092 3.909623
2008-07-17 12:57:02 51°22.644 3°13.266 18.3023 4.218084 31.49144 3.979271
2008-07-17 12:58:02 51°22.641 3°13.308 18.2908 4.215698 31.473979 4.014096
2008-07-17 12:59:02 51°22.642 3°13.361 18.2928 4.214764 31.466199 4.014096
2008-07-17 13:00:02 51°22.647 3°13.421 18.2908 4.215387 31.46836 3.944447
2008-07-17 13:01:02 51°22.654 3°13.482 18.2846 4.213934 31.464123 3.909623
2008-07-17 13:02:02 51°22.635 3°13.525 18.3069 4.215075 31.474238 3.874799
2008-07-17 13:03:02 51°22.614 3°13.461 18.2863 4.218084 31.494467 4.118568
2008-07-17 13:04:02 51°22.59 3°13.278 18.2765 4.219952 31.520333 4.188216
2008-07-17 13:05:02 51°22.575 3°13.067 18.2806 4.221612 31.532352 4.327512
2008-07-17 13:06:02 51°22.563 3°12.852 18.2781 4.217669 31.497065 4.431984
2008-07-17 13:07:02 51°22.551 3°12.633 18.2783 4.212378 31.454785 4.536456
2008-07-17 13:08:02 51°22.539 3°12.414 18.2838 4.210095 31.438184 4.606104
2008-07-17 13:09:02 51°22.526 3°12.198 18.3044 4.211236 31.439229 4.675753
2008-07-17 13:10:02 51°22.513 3°11.981 18.2957 4.214453 31.461186 4.640929
2008-07-17 13:11:02 51°22.495 3°11.765 18.3108 4.215905 31.473287 4.710577
2008-07-17 13:12:02 51°22.48 3°11.585 18.2967 4.218395 31.486165 4.780225
2008-07-17 13:13:02 51°22.473 3°11.464 18.2951 4.219433 31.505101 4.640929
2008-07-17 13:14:02 51°22.465 3°11.361 18.2877 4.22182 31.524987 4.362336
2008-07-17 13:15:02 51°22.459 3°11.284 18.2859 4.222754 31.532769 4.257864
2008-07-17 13:16:02 51°22.461 3°11.245 18.2991 4.222442 31.5326 4.257864
2008-07-17 13:17:02 51°22.459 3°11.228 18.2846 4.222857 31.536059 4.327512
2008-07-17 13:18:02 51°22.459 3°11.226 18.2787 4.224414 31.556313 4.292688
2008-07-17 13:19:02 51°22.465 3°11.244 18.2731 4.225348 31.566527 4.188216
2008-07-17 13:20:02 51°22.471 3°11.282 18.2758 4.224725 31.56255 4.118568
2008-07-17 13:21:02 51°22.482 3°11.335 18.2764 4.225348 31.560456 4.083744
2008-07-17 13:22:02 51°22.495 3°11.388 18.2762 4.22431 31.558483 4.04892
2008-07-17 13:23:02 51°22.47 3°11.404 18.2941 4.225763 31.566344 4.04892
2008-07-17 13:24:02 51°22.453 3°11.272 18.2699 4.226385 31.572141 4.501632
2008-07-17 13:25:02 51°22.411 3°11.07 18.277 4.222339 31.542653 4.466808
2008-07-17 13:26:02 51°22.358 3°10.815 18.2799 4.221405 31.532442 4.849873
2008-07-17 13:27:02 51°22.287 3°10.548 18.2844 4.221197 31.530105 5.093641
2008-07-17 13:28:02 51°22.206 3°10.292 18.2918 4.221405 31.530016 5.058817
2008-07-17 13:29:02 51°22.126 3°10.038 18.3145 4.229498 31.585338 5.093641
2008-07-17 13:30:02 51°22.052 3°9.777 18.3156 4.237176 31.635357 5.058817
2008-07-17 13:31:02 51°21.97 3°9.523 18.292 4.243091 31.687696 4.989169
2008-07-17 13:32:02 51°21.891 3°9.264 18.2718 4.247657 31.748948 4.954345
2008-07-17 13:33:02 51°21.813 3°9.003 18.2685 4.248591 31.764683 5.093641
2008-07-17 13:34:02 51°21.743 3°8.738 18.2702 4.250147 31.780121 5.51153
2008-07-17 13:35:02 51°21.678 3°8.466 18.2641 4.253987 31.814009 5.546354
2008-07-17 13:36:02 51°21.613 3°8.192 18.2631 4.255855 31.830217 5.755298
2008-07-17 13:37:02 51°21.542 3°7.92 18.2755 4.258656 31.853612 6.416955
2008-07-17 13:38:02 51°21.473 3°7.651 18.2939 4.264364 31.893298 6.730372
2008-07-17 13:39:02 51°21.404 3°7.384 18.3088 4.265193 31.884894 7.844741
2008-07-17 13:40:02 51°21.332 3°7.121 18.3123 4.263325 31.861952 8.471574
2008-07-17 13:41:02 51°21.269 3°6.853 18.3174 4.260316 31.828278 9.028759
2008-07-17 13:42:02 51°21.214 3°6.577 18.3098 4.257203 31.803536 9.307352
2008-07-17 13:43:02 51°21.162 3°6.3 18.3101 4.255024 31.789028 9.655592
2008-07-17 13:44:02 51°21.116 3°6.02 18.3051 4.251911 31.761845 10.247601
2008-07-17 13:45:02 51°21.078 3°5.734 18.3009 4.250666 31.757565 10.317249
2008-07-17 13:46:02 51°21.039 3°5.446 18.3132 4.260627 31.838829 10.561018
2008-07-17 13:47:02 51°20.99 3°5.17 18.3319 4.278476 31.977957 9.342176
2008-07-17 13:48:02 51°20.944 3°4.892 18.3293 4.289787 32.062525 8.506398
2008-07-17 13:49:02 51°20.897 3°4.612 18.3318 4.295391 32.111775 7.949214
2008-07-17 13:50:02 51°20.844 3°4.335 18.3442 4.306184 32.195725 7.531325
2008-07-17 13:51:02 51°20.801 3°4.049 18.3452 4.319883 32.303957 7.252733
2008-07-17 13:52:02 51°20.756 3°3.762 18.3392 4.333271 32.414588 7.392029
2008-07-17 13:53:02 51°20.704 3°3.483 18.3435 4.349877 32.56156 6.660724
2008-07-17 13:54:02 51°20.655 3°3.205 18.3404 4.370427 32.726631 6.103539
2008-07-17 13:55:02 51°20.611 3°2.922 18.3377 4.379769 32.807359 5.51153
2008-07-17 13:56:02 51°20.565 3°2.638 18.3374 4.385166 32.857613 5.407058
2008-07-17 13:57:02 51°20.51 3°2.36 18.3361 4.401255 32.991799 5.720474
2008-07-17 13:58:02 51°20.457 3°2.083 18.3236 4.416203 33.117127 5.790122
2008-07-17 13:59:02 51°20.408 3°1.8 18.3152 4.427725 33.224006 5.720474
2008-07-17 14:00:02 51°20.36 3°1.511 18.3146 4.433746 33.278386 5.929418
2008-07-17 14:01:02 51°20.315 3°1.221 18.3033 4.445477 33.381394 5.999067
2008-07-17 14:02:02 51°20.267 3°0.932 18.2844 4.458661 33.500562 5.894594
2008-07-17 14:03:02 51°20.218 3°0.645 18.2637 4.469458 33.609467 5.68565
2008-07-17 14:04:02 51°20.17 3°0.355 18.2471 4.478075 33.697572 5.616002
2008-07-17 14:05:02 51°20.118 3°0.066 18.24 4.486588 33.779701 5.616002
2008-07-17 14:06:02 51°20.074 2°59.773 18.2292 4.494686 33.856445 5.790122
2008-07-17 14:07:02 51°20.03 2°59.482 18.2025 4.507976 33.978365 6.277659
2008-07-17 14:08:02 51°19.986 2°59.192 18.185 4.524588 34.139686 6.695548
2008-07-17 14:09:02 51°19.936 2°58.904 18.1568 4.533829 34.23365 7.008964
2008-07-17 14:10:02 51°19.89 2°58.617 18.1282 4.544109 34.341835 7.14826
2008-07-17 14:11:02 51°19.852 2°58.323 18.1139 4.552209 34.43305 7.183084
2008-07-17 14:12:02 51°19.805 2°58.033 18.1005 4.555947 34.475404 7.183084
2008-07-17 14:13:02 51°19.759 2°57.743 18.0947 4.560516 34.52283 7.113436
2008-07-17 14:14:02 51°19.713 2°57.454 18.0911 4.566538 34.581283 6.904492
2008-07-17 14:15:02 51°19.665 2°57.167 18.0905 4.57443 34.65027 6.347307
2008-07-17 14:16:02 51°19.619 2°56.879 18.0907 4.576922 34.672097 5.824946
2008-07-17 14:17:02 51°19.574 2°56.591 18.0865 4.577649 34.678267 5.581178
2008-07-17 14:18:02 51°19.535 2°56.298 18.0762 4.577234 34.680789 5.198113
2008-07-17 14:19:02 51°19.491 2°56.01 18.0577 4.576507 34.684029 4.710577
2008-07-17 14:20:02 51°19.446 2°55.722 18.0396 4.575054 34.686478 4.188216
2008-07-17 14:21:02 51°19.398 2°55.433 18.0197 4.573496 34.689394 3.700679
2008-07-17 14:22:02 51°19.347 2°55.146 18.0029 4.572147 34.692061 3.422087
2008-07-17 14:23:02 51°19.299 2°54.858 17.9863 4.570797 34.694731 3.28279
2008-07-17 14:24:02 51°19.246 2°54.573 17.963 4.569344 34.697195 3.247966
2008-07-17 14:25:02 51°19.195 2°54.288 17.9415 4.567267 34.698409 3.213142
2008-07-17 14:26:02 51°19.147 2°54.002 17.9306 4.565398 34.69937 3.10867
2008-07-17 14:27:02 51°19.095 2°53.718 17.9252 4.564568 34.702425 2.621133
2008-07-17 14:28:02 51°19.041 2°53.435 17.9022 4.564776 34.711628 2.133597
2008-07-17 14:29:02 51°18.983 2°53.153 17.8799 4.564153 34.722547 1.855004
2008-07-17 14:30:02 51°18.921 2°52.874 17.8546 4.562803 34.733372 1.750532
2008-07-17 14:31:02 51°18.86 2°52.596 17.8272 4.561246 34.742442 1.680884
2008-07-17 14:32:02 51°18.797 2°52.317 17.8156 4.559897 34.750587 1.680884
2008-07-17 14:33:02 51°18.732 2°52.04 17.8113 4.559585 34.756071 1.64606
2008-07-17 14:34:02 51°18.666 2°51.764 17.813 4.555432 34.721274 1.576412
2008-07-17 14:35:02 51°18.613 2°51.518 17.8137 4.560105 34.759148 1.506764
2008-07-17 14:36:02 51°18.574 2°51.335 17.8105 4.560105 34.759826 1.402292
2008-07-17 14:37:02 51°18.546 2°51.195 17.817 4.560105 34.761184 1.228171
2008-07-17 14:38:02 51°18.533 2°51.142 17.8194 4.560728 34.76379 1.088875
2008-07-17 14:39:02 51°18.529 2°51.122 17.8238 4.561039 34.764414 0.984403
2008-07-17 14:40:02 51°18.521 2°51.101 17.8286 4.561454 34.765246 0.879931
2008-07-17 14:41:02 51°18.51 2°51.066 17.8445 4.56187 34.765399 0.810283
2008-07-17 14:42:02 51°18.502 2°51.025 18.041 4.559895 34.639697 0.914755
2008-07-17 14:43:02 51°18.506 2°51.025 17.9061 4.572251 34.711142 0.810283
2008-07-17 14:44:02 51°18.517 2°51.051 17.8596 4.567268 34.751136 0.810283
2008-07-17 14:45:02 51°18.535 2°51.088 17.843 4.564673 34.760161 0.914755
2008-07-17 14:46:02 51°18.558 2°51.125 17.8415 4.563842 34.761209 0.914755
2008-07-17 14:47:04 51°18.535 2°51.195 17.8354 4.563531 34.761263 0.949579
2008-07-17 14:48:04 51°18.397 2°51.354 17.8242 4.562908 34.762728 1.123699
2008-07-17 14:49:04 51°18.237 2°51.525 17.8182 4.561662 34.761589 1.332643
2008-07-17 14:50:04 51°18.075 2°51.694 17.8133 4.561247 34.756007 1.541588
2008-07-17 14:51:04 51°17.913 2°51.866 17.8392 4.543387 34.602887 1.64606
2008-07-17 14:52:04 51°17.754 2°52.035 17.8439 4.558235 34.714033 1.541588
2008-07-17 14:53:04 51°17.595 2°52.209 17.9012 4.562284 34.734362 1.541588
2008-07-17 14:54:04 51°17.434 2°52.382 17.9557 4.564256 34.696395 1.785356
2008-07-17 14:55:04 51°17.272 2°52.553 18.287 4.567267 34.689638 4.710577
2008-07-17 14:56:04 51°17.11 2°52.725 18.3046 0.084504 0.482466 -1.453281
2008-07-17 14:57:04 51°16.948 2°52.898 18.3814 0.077712 0.442254 -1.488105
2008-07-17 14:58:04 51°16.79 2°53.074 18.4616 0.063716 0.360083 -1.488105
2008-07-17 14:59:04 51°16.65 2°53.301 18.5425 0.068038 0.385271 -1.488105
2008-07-17 15:00:04 51°16.526 2°53.551 18.631 0.055689 0.313332 -1.453281
2008-07-17 15:01:04 51°16.43 2°53.829 18.7003 0.05857 0.329982 -1.453281
2008-07-17 15:02:04 51°16.367 2°54.003 18.7846 0.053322 0.299523 -1.453281
2008-07-17 15:03:04 51°16.331 2°54.104 18.885 0.054969 0.308896 -1.488105
2008-07-17 15:04:04 51°16.308 2°54.171 18.9364 0.05291 0.296908 -1.488105
2008-07-17 15:05:04 51°16.288 2°54.223 18.7524 4.566632 34.007985 2.203245
2008-07-17 15:06:04 51°16.272 2°54.265 18.9093 4.621356 34.412 1.64606
2008-07-17 15:07:04 51°16.263 2°54.296 19.2462 4.640877 34.384764 1.611236
2008-07-17 15:08:04 51°16.258 2°54.322 19.3785 4.663517 34.516313 -0.199615
2008-07-17 15:09:04 51°16.257 2°54.348 19.4245 4.666633 34.543466 1.750532
2008-07-17 15:10:04 51°16.24 2°54.382 19.3996 4.667567 34.519432 1.437116
2008-07-17 15:11:04 51°16.12 2°54.442 19.4719 4.66954 34.542928 1.402292
2008-07-17 15:12:04 51°15.934 2°54.472 19.4028 4.67037 34.508993 1.889828
2008-07-17 15:13:04 51°15.743 2°54.504 19.5783 4.672863 34.52511 2.168421
2008-07-17 15:14:04 51°15.553 2°54.524 19.5064 4.674524 34.474245 1.959476
2008-07-17 15:15:04 51°15.363 2°54.545 19.2512 4.676913 34.503679 1.924652
2008-07-17 15:16:04 51°15.173 2°54.571 19.4589 4.686048 34.314906 2.098773
2008-07-17 15:17:04 51°14.984 2°54.621 19.2507 4.707026 34.351584 1.715708
2008-07-17 15:18:04 51°14.794 2°54.677 19.1569 4.726447 34.346475 1.924652
2008-07-17 15:19:04 51°14.615 2°54.795 19.3194 4.754798 34.202147 1.924652
2008-07-17 15:20:04 51°14.446 2°54.95 19.166 4.763835 34.232909 -1.313985
2008-07-17 15:21:04 51°14.312 2°55.17 21.2982 0.094795 0.510034 -1.070216
2008-07-17 15:22:04 51°14.185 2°55.359 21.2968 0.083166 0.446309 -1.627401